sensor_id;sensor_type;location;lat;lon;timestamp;P1;durP1;ratioP1;P2;durP2;ratioP2
8622;SDS011;4349;47.552;8.904;2022-12-17T00:00:25;18.53;;;13.97;;
8622;SDS011;4349;47.552;8.904;2022-12-17T00:03:10;16.47;;;13.73;;
8622;SDS011;4349;47.552;8.904;2022-12-17T00:05:55;16.53;;;13.63;;
8622;SDS011;4349;47.552;8.904;2022-12-17T00:08:41;16.10;;;13.27;;
8622;SDS011;4349;47.552;8.904;2022-12-17T00:11:27;15.77;;;13.00;;
8622;SDS011;4349;47.552;8.904;2022-12-17T00:14:12;17.13;;;13.43;;
8622;SDS011;4349;47.552;8.904;2022-12-17T00:16:56;15.67;;;12.57;;
8622;SDS011;4349;47.552;8.904;2022-12-17T00:19:41;15.63;;;12.47;;
8622;SDS011;4349;47.552;8.904;2022-12-17T00:22:27;17.47;;;13.67;;
8622;SDS011;4349;47.552;8.904;2022-12-17T00:25:23;16.77;;;13.03;;
8622;SDS011;4349;47.552;8.904;2022-12-17T00:28:11;15.03;;;12.60;;
8622;SDS011;4349;47.552;8.904;2022-12-17T00:30:56;15.23;;;13.23;;
8622;SDS011;4349;47.552;8.904;2022-12-17T00:33:41;15.20;;;13.23;;
8622;SDS011;4349;47.552;8.904;2022-12-17T00:36:26;16.17;;;13.27;;
8622;SDS011;4349;47.552;8.904;2022-12-17T00:39:11;16.47;;;12.80;;
8622;SDS011;4349;47.552;8.904;2022-12-17T00:41:56;15.37;;;13.53;;
8622;SDS011;4349;47.552;8.904;2022-12-17T00:44:43;15.43;;;12.33;;
8622;SDS011;4349;47.552;8.904;2022-12-17T00:47:28;14.37;;;12.67;;
8622;SDS011;4349;47.552;8.904;2022-12-17T00:50:13;15.90;;;13.83;;
8622;SDS011;4349;47.552;8.904;2022-12-17T00:52:58;16.00;;;13.17;;
8622;SDS011;4349;47.552;8.904;2022-12-17T00:55:43;16.03;;;13.10;;
8622;SDS011;4349;47.552;8.904;2022-12-17T00:58:29;18.00;;;13.73;;
8622;SDS011;4349;47.552;8.904;2022-12-17T01:01:15;15.23;;;12.87;;
8622;SDS011;4349;47.552;8.904;2022-12-17T01:04:00;15.03;;;12.57;;
8622;SDS011;4349;47.552;8.904;2022-12-17T01:06:45;16.67;;;13.17;;
8622;SDS011;4349;47.552;8.904;2022-12-17T01:09:30;19.03;;;14.20;;
8622;SDS011;4349;47.552;8.904;2022-12-17T01:12:15;18.70;;;14.40;;
8622;SDS011;4349;47.552;8.904;2022-12-17T01:15:08;20.37;;;15.53;;
8622;SDS011;4349;47.552;8.904;2022-12-17T01:17:54;23.47;;;17.20;;
8622;SDS011;4349;47.552;8.904;2022-12-17T01:20:39;21.37;;;16.37;;
8622;SDS011;4349;47.552;8.904;2022-12-17T01:23:24;23.63;;;16.67;;
8622;SDS011;4349;47.552;8.904;2022-12-17T01:26:09;23.47;;;16.63;;
8622;SDS011;4349;47.552;8.904;2022-12-17T01:28:55;22.03;;;17.03;;
8622;SDS011;4349;47.552;8.904;2022-12-17T01:31:40;22.67;;;16.47;;
8622;SDS011;4349;47.552;8.904;2022-12-17T01:34:27;21.30;;;16.60;;
8622;SDS011;4349;47.552;8.904;2022-12-17T01:37:12;21.97;;;16.17;;
8622;SDS011;4349;47.552;8.904;2022-12-17T01:39:56;21.23;;;16.57;;
8622;SDS011;4349;47.552;8.904;2022-12-17T01:42:41;23.23;;;16.80;;
8622;SDS011;4349;47.552;8.904;2022-12-17T01:45:27;19.67;;;14.83;;
8622;SDS011;4349;47.552;8.904;2022-12-17T01:48:15;20.93;;;15.43;;
8622;SDS011;4349;47.552;8.904;2022-12-17T01:51:02;22.70;;;16.23;;
8622;SDS011;4349;47.552;8.904;2022-12-17T01:53:48;20.67;;;15.47;;
8622;SDS011;4349;47.552;8.904;2022-12-17T01:56:33;19.90;;;15.37;;
8622;SDS011;4349;47.552;8.904;2022-12-17T01:59:20;21.23;;;15.17;;
8622;SDS011;4349;47.552;8.904;2022-12-17T02:02:06;20.00;;;15.30;;
8622;SDS011;4349;47.552;8.904;2022-12-17T02:04:51;19.23;;;14.53;;
8622;SDS011;4349;47.552;8.904;2022-12-17T02:07:42;19.03;;;14.53;;
8622;SDS011;4349;47.552;8.904;2022-12-17T02:10:32;16.17;;;14.43;;
8622;SDS011;4349;47.552;8.904;2022-12-17T02:13:22;18.43;;;14.80;;
8622;SDS011;4349;47.552;8.904;2022-12-17T02:16:08;17.63;;;14.53;;
8622;SDS011;4349;47.552;8.904;2022-12-17T02:18:59;18.93;;;14.50;;
8622;SDS011;4349;47.552;8.904;2022-12-17T02:21:46;20.03;;;14.50;;
8622;SDS011;4349;47.552;8.904;2022-12-17T02:24:35;18.13;;;14.63;;
8622;SDS011;4349;47.552;8.904;2022-12-17T02:27:25;19.33;;;14.23;;
8622;SDS011;4349;47.552;8.904;2022-12-17T02:30:11;18.53;;;14.07;;
8622;SDS011;4349;47.552;8.904;2022-12-17T02:32:56;17.57;;;14.03;;
8622;SDS011;4349;47.552;8.904;2022-12-17T02:35:52;18.60;;;13.70;;
8622;SDS011;4349;47.552;8.904;2022-12-17T02:38:37;17.80;;;13.70;;
8622;SDS011;4349;47.552;8.904;2022-12-17T02:41:25;17.90;;;13.13;;
8622;SDS011;4349;47.552;8.904;2022-12-17T02:44:16;16.27;;;13.50;;
8622;SDS011;4349;47.552;8.904;2022-12-17T02:47:02;17.00;;;13.67;;
8622;SDS011;4349;47.552;8.904;2022-12-17T02:49:44;18.80;;;14.10;;
8622;SDS011;4349;47.552;8.904;2022-12-17T02:52:34;16.93;;;13.97;;
8622;SDS011;4349;47.552;8.904;2022-12-17T02:55:19;18.57;;;14.20;;
8622;SDS011;4349;47.552;8.904;2022-12-17T02:58:05;17.50;;;14.60;;
8622;SDS011;4349;47.552;8.904;2022-12-17T03:00:51;17.90;;;13.50;;
8622;SDS011;4349;47.552;8.904;2022-12-17T03:03:36;15.23;;;13.37;;
8622;SDS011;4349;47.552;8.904;2022-12-17T03:06:21;18.53;;;13.83;;
8622;SDS011;4349;47.552;8.904;2022-12-17T03:09:15;20.67;;;14.30;;
8622;SDS011;4349;47.552;8.904;2022-12-17T03:12:00;17.47;;;13.23;;
8622;SDS011;4349;47.552;8.904;2022-12-17T03:14:45;17.97;;;14.67;;
8622;SDS011;4349;47.552;8.904;2022-12-17T03:17:32;17.80;;;13.87;;
8622;SDS011;4349;47.552;8.904;2022-12-17T03:20:16;18.20;;;13.90;;
8622;SDS011;4349;47.552;8.904;2022-12-17T03:23:02;17.23;;;13.30;;
8622;SDS011;4349;47.552;8.904;2022-12-17T03:25:47;18.37;;;13.97;;
8622;SDS011;4349;47.552;8.904;2022-12-17T03:28:32;18.70;;;15.13;;
8622;SDS011;4349;47.552;8.904;2022-12-17T03:31:19;15.27;;;13.07;;
8622;SDS011;4349;47.552;8.904;2022-12-17T03:34:13;17.90;;;13.50;;
8622;SDS011;4349;47.552;8.904;2022-12-17T03:36:58;15.87;;;13.00;;
8622;SDS011;4349;47.552;8.904;2022-12-17T03:39:43;16.93;;;13.50;;
8622;SDS011;4349;47.552;8.904;2022-12-17T03:42:28;15.87;;;12.60;;
8622;SDS011;4349;47.552;8.904;2022-12-17T03:45:13;16.30;;;12.77;;
8622;SDS011;4349;47.552;8.904;2022-12-17T03:48:04;19.70;;;13.37;;
8622;SDS011;4349;47.552;8.904;2022-12-17T03:50:51;15.47;;;12.97;;
8622;SDS011;4349;47.552;8.904;2022-12-17T03:53:36;15.57;;;12.70;;
8622;SDS011;4349;47.552;8.904;2022-12-17T03:56:21;16.10;;;12.57;;
8622;SDS011;4349;47.552;8.904;2022-12-17T03:59:06;15.80;;;13.10;;
8622;SDS011;4349;47.552;8.904;2022-12-17T04:01:57;15.07;;;12.67;;
8622;SDS011;4349;47.552;8.904;2022-12-17T04:04:42;16.33;;;13.10;;
8622;SDS011;4349;47.552;8.904;2022-12-17T04:07:29;15.07;;;12.07;;
8622;SDS011;4349;47.552;8.904;2022-12-17T04:10:14;15.43;;;12.10;;
8622;SDS011;4349;47.552;8.904;2022-12-17T04:12:59;15.50;;;12.60;;
8622;SDS011;4349;47.552;8.904;2022-12-17T04:15:44;17.30;;;12.63;;
8622;SDS011;4349;47.552;8.904;2022-12-17T04:18:28;13.87;;;12.40;;
8622;SDS011;4349;47.552;8.904;2022-12-17T04:21:13;15.80;;;12.77;;
8622;SDS011;4349;47.552;8.904;2022-12-17T04:24:00;17.93;;;13.60;;
8622;SDS011;4349;47.552;8.904;2022-12-17T04:26:44;15.20;;;12.60;;
8622;SDS011;4349;47.552;8.904;2022-12-17T04:29:29;15.77;;;12.87;;
8622;SDS011;4349;47.552;8.904;2022-12-17T04:32:14;14.77;;;11.87;;
8622;SDS011;4349;47.552;8.904;2022-12-17T04:35:01;15.60;;;12.17;;
8622;SDS011;4349;47.552;8.904;2022-12-17T04:37:45;13.90;;;11.53;;
8622;SDS011;4349;47.552;8.904;2022-12-17T04:40:32;16.60;;;13.10;;
8622;SDS011;4349;47.552;8.904;2022-12-17T04:43:17;15.87;;;13.40;;
8622;SDS011;4349;47.552;8.904;2022-12-17T04:46:02;14.97;;;12.37;;
8622;SDS011;4349;47.552;8.904;2022-12-17T04:48:47;16.70;;;13.73;;
8622;SDS011;4349;47.552;8.904;2022-12-17T04:51:32;17.17;;;13.27;;
8622;SDS011;4349;47.552;8.904;2022-12-17T04:54:29;21.13;;;14.67;;
8622;SDS011;4349;47.552;8.904;2022-12-17T04:57:15;17.23;;;14.10;;
8622;SDS011;4349;47.552;8.904;2022-12-17T05:00:00;19.27;;;14.80;;
8622;SDS011;4349;47.552;8.904;2022-12-17T05:02:45;18.67;;;14.90;;
8622;SDS011;4349;47.552;8.904;2022-12-17T05:05:30;22.13;;;15.90;;
8622;SDS011;4349;47.552;8.904;2022-12-17T05:08:15;21.67;;;15.70;;
8622;SDS011;4349;47.552;8.904;2022-12-17T05:11:06;24.07;;;17.00;;
8622;SDS011;4349;47.552;8.904;2022-12-17T05:13:53;22.83;;;16.57;;
8622;SDS011;4349;47.552;8.904;2022-12-17T05:16:38;24.50;;;17.20;;
8622;SDS011;4349;47.552;8.904;2022-12-17T05:19:22;22.27;;;16.63;;
8622;SDS011;4349;47.552;8.904;2022-12-17T05:22:07;23.17;;;17.20;;
8622;SDS011;4349;47.552;8.904;2022-12-17T05:24:52;21.27;;;16.53;;
8622;SDS011;4349;47.552;8.904;2022-12-17T05:27:37;21.30;;;17.20;;
8622;SDS011;4349;47.552;8.904;2022-12-17T05:30:23;23.80;;;16.10;;
8622;SDS011;4349;47.552;8.904;2022-12-17T05:33:08;20.97;;;16.63;;
8622;SDS011;4349;47.552;8.904;2022-12-17T05:35:57;19.40;;;15.93;;
8622;SDS011;4349;47.552;8.904;2022-12-17T05:38:42;21.67;;;15.97;;
8622;SDS011;4349;47.552;8.904;2022-12-17T05:41:27;20.80;;;16.00;;
8622;SDS011;4349;47.552;8.904;2022-12-17T05:44:12;22.90;;;16.40;;
8622;SDS011;4349;47.552;8.904;2022-12-17T05:46:58;23.43;;;16.57;;
8622;SDS011;4349;47.552;8.904;2022-12-17T05:49:43;21.47;;;16.53;;
8622;SDS011;4349;47.552;8.904;2022-12-17T05:52:28;21.13;;;16.40;;
8622;SDS011;4349;47.552;8.904;2022-12-17T05:55:13;21.43;;;16.17;;
8622;SDS011;4349;47.552;8.904;2022-12-17T05:58:10;20.17;;;15.23;;
8622;SDS011;4349;47.552;8.904;2022-12-17T06:00:55;21.00;;;15.90;;
8622;SDS011;4349;47.552;8.904;2022-12-17T06:03:42;22.70;;;17.77;;
8622;SDS011;4349;47.552;8.904;2022-12-17T06:06:27;22.83;;;17.40;;
8622;SDS011;4349;47.552;8.904;2022-12-17T06:09:12;23.50;;;17.60;;
8622;SDS011;4349;47.552;8.904;2022-12-17T06:11:57;23.67;;;17.83;;
8622;SDS011;4349;47.552;8.904;2022-12-17T06:14:38;21.67;;;16.93;;
8622;SDS011;4349;47.552;8.904;2022-12-17T06:17:23;21.73;;;16.77;;
8622;SDS011;4349;47.552;8.904;2022-12-17T06:20:10;20.33;;;16.17;;
8622;SDS011;4349;47.552;8.904;2022-12-17T06:22:58;21.37;;;15.97;;
8622;SDS011;4349;47.552;8.904;2022-12-17T06:25:44;21.63;;;16.50;;
8622;SDS011;4349;47.552;8.904;2022-12-17T06:28:28;20.90;;;15.70;;
8622;SDS011;4349;47.552;8.904;2022-12-17T06:31:13;20.83;;;16.73;;
8622;SDS011;4349;47.552;8.904;2022-12-17T06:33:58;19.47;;;15.23;;
8622;SDS011;4349;47.552;8.904;2022-12-17T06:36:45;21.40;;;15.77;;
8622;SDS011;4349;47.552;8.904;2022-12-17T06:39:29;21.07;;;16.77;;
8622;SDS011;4349;47.552;8.904;2022-12-17T06:42:14;34.47;;;23.83;;
8622;SDS011;4349;47.552;8.904;2022-12-17T06:44:59;31.70;;;21.70;;
8622;SDS011;4349;47.552;8.904;2022-12-17T06:47:44;24.83;;;18.80;;
8622;SDS011;4349;47.552;8.904;2022-12-17T06:50:29;23.23;;;16.77;;
8622;SDS011;4349;47.552;8.904;2022-12-17T06:53:15;20.63;;;16.40;;
8622;SDS011;4349;47.552;8.904;2022-12-17T06:56:01;21.23;;;15.33;;
8622;SDS011;4349;47.552;8.904;2022-12-17T06:58:46;22.17;;;15.60;;
8622;SDS011;4349;47.552;8.904;2022-12-17T07:01:31;21.03;;;16.50;;
8622;SDS011;4349;47.552;8.904;2022-12-17T07:04:16;23.70;;;17.07;;
8622;SDS011;4349;47.552;8.904;2022-12-17T07:07:01;22.70;;;16.83;;
8622;SDS011;4349;47.552;8.904;2022-12-17T07:09:48;24.47;;;16.60;;
8622;SDS011;4349;47.552;8.904;2022-12-17T07:12:39;20.93;;;16.90;;
8622;SDS011;4349;47.552;8.904;2022-12-17T07:15:24;21.83;;;15.93;;
8622;SDS011;4349;47.552;8.904;2022-12-17T07:18:09;21.70;;;16.33;;
8622;SDS011;4349;47.552;8.904;2022-12-17T07:20:53;21.40;;;15.90;;
8622;SDS011;4349;47.552;8.904;2022-12-17T07:23:38;21.80;;;16.77;;
8622;SDS011;4349;47.552;8.904;2022-12-17T07:26:24;22.70;;;16.07;;
8622;SDS011;4349;47.552;8.904;2022-12-17T07:29:09;22.53;;;16.77;;
8622;SDS011;4349;47.552;8.904;2022-12-17T07:31:54;32.77;;;23.50;;
8622;SDS011;4349;47.552;8.904;2022-12-17T07:34:39;29.53;;;22.50;;
8622;SDS011;4349;47.552;8.904;2022-12-17T07:37:24;26.10;;;18.77;;
8622;SDS011;4349;47.552;8.904;2022-12-17T07:40:09;24.00;;;16.90;;
8622;SDS011;4349;47.552;8.904;2022-12-17T07:42:55;25.10;;;17.47;;
8622;SDS011;4349;47.552;8.904;2022-12-17T07:45:40;21.23;;;16.03;;
8622;SDS011;4349;47.552;8.904;2022-12-17T07:48:25;22.00;;;16.17;;
8622;SDS011;4349;47.552;8.904;2022-12-17T07:51:22;19.67;;;15.83;;
8622;SDS011;4349;47.552;8.904;2022-12-17T07:54:12;19.20;;;15.80;;
8622;SDS011;4349;47.552;8.904;2022-12-17T07:56:59;18.83;;;14.97;;
8622;SDS011;4349;47.552;8.904;2022-12-17T07:59:45;21.10;;;15.63;;
8622;SDS011;4349;47.552;8.904;2022-12-17T08:02:30;22.07;;;16.30;;
8622;SDS011;4349;47.552;8.904;2022-12-17T08:05:15;20.13;;;14.60;;
8622;SDS011;4349;47.552;8.904;2022-12-17T08:08:06;21.47;;;15.97;;
8622;SDS011;4349;47.552;8.904;2022-12-17T08:10:56;22.40;;;16.07;;
8622;SDS011;4349;47.552;8.904;2022-12-17T08:13:40;20.53;;;14.43;;
8622;SDS011;4349;47.552;8.904;2022-12-17T08:16:27;20.40;;;15.60;;
8622;SDS011;4349;47.552;8.904;2022-12-17T08:19:12;22.00;;;16.70;;
8622;SDS011;4349;47.552;8.904;2022-12-17T08:21:57;22.30;;;15.97;;
8622;SDS011;4349;47.552;8.904;2022-12-17T08:24:47;21.10;;;15.27;;
8622;SDS011;4349;47.552;8.904;2022-12-17T08:27:32;19.67;;;15.57;;
8622;SDS011;4349;47.552;8.904;2022-12-17T08:30:17;19.63;;;16.00;;
8622;SDS011;4349;47.552;8.904;2022-12-17T08:33:03;22.73;;;16.83;;
8622;SDS011;4349;47.552;8.904;2022-12-17T08:35:51;21.90;;;16.70;;
8622;SDS011;4349;47.552;8.904;2022-12-17T08:38:37;20.67;;;16.67;;
8622;SDS011;4349;47.552;8.904;2022-12-17T08:41:21;21.30;;;16.27;;
8622;SDS011;4349;47.552;8.904;2022-12-17T08:44:19;22.10;;;17.00;;
8622;SDS011;4349;47.552;8.904;2022-12-17T08:47:04;22.10;;;16.67;;
8622;SDS011;4349;47.552;8.904;2022-12-17T08:49:50;23.13;;;17.53;;
8622;SDS011;4349;47.552;8.904;2022-12-17T08:52:35;23.10;;;16.57;;
8622;SDS011;4349;47.552;8.904;2022-12-17T08:55:20;24.13;;;16.47;;
8622;SDS011;4349;47.552;8.904;2022-12-17T08:58:05;20.73;;;16.70;;
8622;SDS011;4349;47.552;8.904;2022-12-17T09:00:50;24.87;;;17.20;;
8622;SDS011;4349;47.552;8.904;2022-12-17T09:03:35;21.00;;;16.60;;
8622;SDS011;4349;47.552;8.904;2022-12-17T09:06:22;24.67;;;17.47;;
8622;SDS011;4349;47.552;8.904;2022-12-17T09:09:06;22.50;;;16.93;;
8622;SDS011;4349;47.552;8.904;2022-12-17T09:11:51;24.03;;;18.63;;
8622;SDS011;4349;47.552;8.904;2022-12-17T09:14:36;24.60;;;16.90;;
8622;SDS011;4349;47.552;8.904;2022-12-17T09:17:21;25.50;;;18.10;;
8622;SDS011;4349;47.552;8.904;2022-12-17T09:20:06;25.50;;;17.47;;
8622;SDS011;4349;47.552;8.904;2022-12-17T09:22:56;23.70;;;17.37;;
8622;SDS011;4349;47.552;8.904;2022-12-17T09:25:41;22.37;;;17.90;;
8622;SDS011;4349;47.552;8.904;2022-12-17T09:28:26;23.37;;;18.03;;
8622;SDS011;4349;47.552;8.904;2022-12-17T09:31:11;25.43;;;17.77;;
8622;SDS011;4349;47.552;8.904;2022-12-17T09:34:02;25.27;;;18.47;;
8622;SDS011;4349;47.552;8.904;2022-12-17T09:36:47;26.10;;;18.13;;
8622;SDS011;4349;47.552;8.904;2022-12-17T09:39:34;23.97;;;17.53;;
8622;SDS011;4349;47.552;8.904;2022-12-17T09:42:22;22.63;;;17.57;;
8622;SDS011;4349;47.552;8.904;2022-12-17T09:45:17;24.97;;;17.07;;
8622;SDS011;4349;47.552;8.904;2022-12-17T09:48:05;25.20;;;18.37;;
8622;SDS011;4349;47.552;8.904;2022-12-17T09:50:57;23.07;;;17.40;;
8622;SDS011;4349;47.552;8.904;2022-12-17T09:53:43;22.97;;;18.43;;
8622;SDS011;4349;47.552;8.904;2022-12-17T09:56:30;26.27;;;19.03;;
8622;SDS011;4349;47.552;8.904;2022-12-17T09:59:18;23.20;;;17.70;;
8622;SDS011;4349;47.552;8.904;2022-12-17T10:02:08;24.67;;;17.43;;
8622;SDS011;4349;47.552;8.904;2022-12-17T10:04:56;20.97;;;17.23;;
8622;SDS011;4349;47.552;8.904;2022-12-17T10:07:42;23.70;;;17.93;;
8622;SDS011;4349;47.552;8.904;2022-12-17T10:10:29;24.80;;;18.47;;
8622;SDS011;4349;47.552;8.904;2022-12-17T10:13:17;21.37;;;17.20;;
8622;SDS011;4349;47.552;8.904;2022-12-17T10:16:12;23.60;;;17.23;;
8622;SDS011;4349;47.552;8.904;2022-12-17T10:18:59;24.23;;;17.53;;
8622;SDS011;4349;47.552;8.904;2022-12-17T10:21:44;22.87;;;17.10;;
8622;SDS011;4349;47.552;8.904;2022-12-17T10:24:29;22.57;;;17.27;;
8622;SDS011;4349;47.552;8.904;2022-12-17T10:27:16;20.13;;;16.60;;
8622;SDS011;4349;47.552;8.904;2022-12-17T10:30:04;22.33;;;17.67;;
8622;SDS011;4349;47.552;8.904;2022-12-17T10:32:58;25.07;;;17.73;;
8622;SDS011;4349;47.552;8.904;2022-12-17T10:35:42;24.43;;;17.77;;
8622;SDS011;4349;47.552;8.904;2022-12-17T10:38:28;25.13;;;18.07;;
8622;SDS011;4349;47.552;8.904;2022-12-17T10:41:20;26.20;;;18.60;;
8622;SDS011;4349;47.552;8.904;2022-12-17T10:44:18;25.83;;;19.10;;
8622;SDS011;4349;47.552;8.904;2022-12-17T10:47:07;21.27;;;17.50;;
8622;SDS011;4349;47.552;8.904;2022-12-17T10:49:55;23.13;;;17.40;;
8622;SDS011;4349;47.552;8.904;2022-12-17T10:52:37;25.37;;;17.67;;
8622;SDS011;4349;47.552;8.904;2022-12-17T10:55:23;22.87;;;17.03;;
8622;SDS011;4349;47.552;8.904;2022-12-17T10:58:10;23.93;;;16.50;;
8622;SDS011;4349;47.552;8.904;2022-12-17T11:00:58;25.47;;;17.40;;
8622;SDS011;4349;47.552;8.904;2022-12-17T11:03:49;22.67;;;17.83;;
8622;SDS011;4349;47.552;8.904;2022-12-17T11:06:35;21.90;;;17.57;;
8622;SDS011;4349;47.552;8.904;2022-12-17T11:09:26;22.83;;;17.27;;
8622;SDS011;4349;47.552;8.904;2022-12-17T11:12:15;24.07;;;18.00;;
8622;SDS011;4349;47.552;8.904;2022-12-17T11:15:03;25.37;;;19.53;;
8622;SDS011;4349;47.552;8.904;2022-12-17T11:17:50;25.43;;;18.50;;
8622;SDS011;4349;47.552;8.904;2022-12-17T11:20:41;23.63;;;18.00;;
8622;SDS011;4349;47.552;8.904;2022-12-17T11:23:28;23.20;;;17.33;;
8622;SDS011;4349;47.552;8.904;2022-12-17T11:26:13;27.47;;;16.97;;
8622;SDS011;4349;47.552;8.904;2022-12-17T11:28:59;24.13;;;17.30;;
8622;SDS011;4349;47.552;8.904;2022-12-17T11:31:54;20.23;;;16.73;;
8622;SDS011;4349;47.552;8.904;2022-12-17T11:34:52;21.13;;;15.80;;
8622;SDS011;4349;47.552;8.904;2022-12-17T11:37:42;20.17;;;15.80;;
8622;SDS011;4349;47.552;8.904;2022-12-17T11:40:32;18.27;;;15.50;;
8622;SDS011;4349;47.552;8.904;2022-12-17T11:43:21;19.20;;;16.07;;
8622;SDS011;4349;47.552;8.904;2022-12-17T11:46:13;24.03;;;17.30;;
8622;SDS011;4349;47.552;8.904;2022-12-17T11:48:58;19.63;;;15.90;;
8622;SDS011;4349;47.552;8.904;2022-12-17T11:51:48;22.20;;;16.60;;
8622;SDS011;4349;47.552;8.904;2022-12-17T11:54:37;21.73;;;16.73;;
8622;SDS011;4349;47.552;8.904;2022-12-17T11:57:26;21.93;;;16.67;;
8622;SDS011;4349;47.552;8.904;2022-12-17T12:00:14;22.43;;;16.70;;
8622;SDS011;4349;47.552;8.904;2022-12-17T12:03:03;23.07;;;17.77;;
8622;SDS011;4349;47.552;8.904;2022-12-17T12:05:52;22.63;;;17.27;;
8622;SDS011;4349;47.552;8.904;2022-12-17T12:08:41;20.60;;;16.93;;
8622;SDS011;4349;47.552;8.904;2022-12-17T12:11:31;21.93;;;18.10;;
8622;SDS011;4349;47.552;8.904;2022-12-17T12:14:22;20.97;;;17.03;;
8622;SDS011;4349;47.552;8.904;2022-12-17T12:17:14;23.60;;;17.73;;
8622;SDS011;4349;47.552;8.904;2022-12-17T12:20:06;20.17;;;17.07;;
8622;SDS011;4349;47.552;8.904;2022-12-17T12:22:55;22.53;;;17.90;;
8622;SDS011;4349;47.552;8.904;2022-12-17T12:25:45;23.13;;;17.50;;
8622;SDS011;4349;47.552;8.904;2022-12-17T12:28:34;22.17;;;16.37;;
8622;SDS011;4349;47.552;8.904;2022-12-17T12:31:23;20.93;;;16.93;;
8622;SDS011;4349;47.552;8.904;2022-12-17T12:34:10;22.93;;;16.77;;
8622;SDS011;4349;47.552;8.904;2022-12-17T12:36:58;23.43;;;17.60;;
8622;SDS011;4349;47.552;8.904;2022-12-17T12:39:45;22.90;;;16.90;;
8622;SDS011;4349;47.552;8.904;2022-12-17T12:42:34;22.53;;;17.70;;
8622;SDS011;4349;47.552;8.904;2022-12-17T12:45:34;20.00;;;16.73;;
8622;SDS011;4349;47.552;8.904;2022-12-17T12:48:28;22.90;;;17.77;;
8622;SDS011;4349;47.552;8.904;2022-12-17T12:51:16;24.00;;;18.10;;
8622;SDS011;4349;47.552;8.904;2022-12-17T12:54:22;21.57;;;17.40;;
8622;SDS011;4349;47.552;8.904;2022-12-17T13:00:03;21.37;;;16.27;;
8622;SDS011;4349;47.552;8.904;2022-12-17T13:02:50;22.93;;;17.10;;
8622;SDS011;4349;47.552;8.904;2022-12-17T13:05:36;21.63;;;16.93;;
8622;SDS011;4349;47.552;8.904;2022-12-17T13:08:15;23.70;;;16.63;;
8622;SDS011;4349;47.552;8.904;2022-12-17T13:10:44;22.73;;;17.63;;
8622;SDS011;4349;47.552;8.904;2022-12-17T13:13:15;20.93;;;16.70;;
8622;SDS011;4349;47.552;8.904;2022-12-17T13:15:50;23.73;;;18.17;;
8622;SDS011;4349;47.552;8.904;2022-12-17T13:18:22;19.67;;;16.73;;
8622;SDS011;4349;47.552;8.904;2022-12-17T13:20:58;21.57;;;17.20;;
8622;SDS011;4349;47.552;8.904;2022-12-17T13:23:30;22.73;;;17.70;;
8622;SDS011;4349;47.552;8.904;2022-12-17T13:28:47;23.03;;;16.97;;
8622;SDS011;4349;47.552;8.904;2022-12-17T13:31:16;22.83;;;17.33;;
8622;SDS011;4349;47.552;8.904;2022-12-17T13:33:49;23.57;;;17.90;;
8622;SDS011;4349;47.552;8.904;2022-12-17T13:36:20;24.10;;;17.67;;
8622;SDS011;4349;47.552;8.904;2022-12-17T13:38:49;23.27;;;17.10;;
8622;SDS011;4349;47.552;8.904;2022-12-17T13:41:20;22.03;;;17.10;;
8622;SDS011;4349;47.552;8.904;2022-12-17T13:43:49;21.03;;;16.20;;
8622;SDS011;4349;47.552;8.904;2022-12-17T13:46:18;23.87;;;17.10;;
8622;SDS011;4349;47.552;8.904;2022-12-17T13:48:54;22.70;;;17.57;;
8622;SDS011;4349;47.552;8.904;2022-12-17T13:51:23;21.17;;;16.77;;
8622;SDS011;4349;47.552;8.904;2022-12-17T13:53:51;20.90;;;16.47;;
8622;SDS011;4349;47.552;8.904;2022-12-17T13:56:23;22.90;;;16.90;;
8622;SDS011;4349;47.552;8.904;2022-12-17T13:58:52;21.07;;;16.73;;
8622;SDS011;4349;47.552;8.904;2022-12-17T14:01:19;17.13;;;15.30;;
8622;SDS011;4349;47.552;8.904;2022-12-17T14:03:48;21.73;;;16.93;;
8622;SDS011;4349;47.552;8.904;2022-12-17T14:06:34;20.30;;;15.37;;
8622;SDS011;4349;47.552;8.904;2022-12-17T14:09:02;18.57;;;15.80;;
8622;SDS011;4349;47.552;8.904;2022-12-17T14:11:30;21.73;;;17.60;;
8622;SDS011;4349;47.552;8.904;2022-12-17T14:14:17;24.53;;;16.90;;
8622;SDS011;4349;47.552;8.904;2022-12-17T14:16:46;22.47;;;17.17;;
8622;SDS011;4349;47.552;8.904;2022-12-17T14:19:16;20.33;;;16.37;;
8622;SDS011;4349;47.552;8.904;2022-12-17T14:21:47;20.73;;;16.73;;
8622;SDS011;4349;47.552;8.904;2022-12-17T14:24:15;23.03;;;16.90;;
8622;SDS011;4349;47.552;8.904;2022-12-17T14:26:47;20.87;;;17.20;;
8622;SDS011;4349;47.552;8.904;2022-12-17T14:29:19;22.83;;;17.23;;
8622;SDS011;4349;47.552;8.904;2022-12-17T14:31:50;21.53;;;17.20;;
8622;SDS011;4349;47.552;8.904;2022-12-17T14:34:18;22.33;;;16.93;;
8622;SDS011;4349;47.552;8.904;2022-12-17T14:36:51;21.30;;;16.47;;
8622;SDS011;4349;47.552;8.904;2022-12-17T14:39:20;21.30;;;16.67;;
8622;SDS011;4349;47.552;8.904;2022-12-17T14:41:48;20.00;;;16.23;;
8622;SDS011;4349;47.552;8.904;2022-12-17T14:44:34;18.23;;;15.60;;
8622;SDS011;4349;47.552;8.904;2022-12-17T14:47:10;19.20;;;16.07;;
8622;SDS011;4349;47.552;8.904;2022-12-17T14:49:38;18.83;;;15.77;;
8622;SDS011;4349;47.552;8.904;2022-12-17T14:52:23;19.33;;;16.67;;
8622;SDS011;4349;47.552;8.904;2022-12-17T14:54:52;19.93;;;16.43;;
8622;SDS011;4349;47.552;8.904;2022-12-17T14:57:20;21.17;;;16.47;;
8622;SDS011;4349;47.552;8.904;2022-12-17T14:59:48;21.97;;;16.77;;
8622;SDS011;4349;47.552;8.904;2022-12-17T15:02:18;22.30;;;17.03;;
8622;SDS011;4349;47.552;8.904;2022-12-17T15:04:49;23.03;;;17.10;;
8622;SDS011;4349;47.552;8.904;2022-12-17T15:07:20;21.37;;;16.47;;
8622;SDS011;4349;47.552;8.904;2022-12-17T15:09:50;21.80;;;16.77;;
8622;SDS011;4349;47.552;8.904;2022-12-17T15:12:18;21.73;;;17.53;;
8622;SDS011;4349;47.552;8.904;2022-12-17T15:14:45;26.97;;;18.20;;
8622;SDS011;4349;47.552;8.904;2022-12-17T15:17:13;24.07;;;17.83;;
8622;SDS011;4349;47.552;8.904;2022-12-17T15:19:41;25.47;;;19.07;;
8622;SDS011;4349;47.552;8.904;2022-12-17T15:22:12;23.60;;;17.93;;
8622;SDS011;4349;47.552;8.904;2022-12-17T15:24:40;23.90;;;18.87;;
8622;SDS011;4349;47.552;8.904;2022-12-17T15:27:09;25.00;;;19.13;;
8622;SDS011;4349;47.552;8.904;2022-12-17T15:29:37;23.03;;;18.20;;
8622;SDS011;4349;47.552;8.904;2022-12-17T15:32:05;26.10;;;18.83;;
8622;SDS011;4349;47.552;8.904;2022-12-17T15:34:32;22.43;;;17.77;;
8622;SDS011;4349;47.552;8.904;2022-12-17T15:37:00;21.57;;;18.07;;
8622;SDS011;4349;47.552;8.904;2022-12-17T15:39:28;21.47;;;17.93;;
8622;SDS011;4349;47.552;8.904;2022-12-17T15:41:55;21.83;;;16.60;;
8622;SDS011;4349;47.552;8.904;2022-12-17T15:44:42;21.87;;;17.57;;
8622;SDS011;4349;47.552;8.904;2022-12-17T15:47:09;20.93;;;17.20;;
8622;SDS011;4349;47.552;8.904;2022-12-17T15:49:37;20.53;;;17.27;;
8622;SDS011;4349;47.552;8.904;2022-12-17T15:52:04;20.03;;;16.70;;
8622;SDS011;4349;47.552;8.904;2022-12-17T15:54:31;20.97;;;16.90;;
8622;SDS011;4349;47.552;8.904;2022-12-17T15:56:59;21.03;;;16.60;;
8622;SDS011;4349;47.552;8.904;2022-12-17T15:59:27;23.10;;;16.90;;
8622;SDS011;4349;47.552;8.904;2022-12-17T16:01:55;23.37;;;17.87;;
8622;SDS011;4349;47.552;8.904;2022-12-17T16:04:23;29.00;;;21.07;;
8622;SDS011;4349;47.552;8.904;2022-12-17T16:06:51;20.83;;;17.87;;
8622;SDS011;4349;47.552;8.904;2022-12-17T16:09:18;29.53;;;23.30;;
8622;SDS011;4349;47.552;8.904;2022-12-17T16:11:51;36.20;;;26.40;;
8622;SDS011;4349;47.552;8.904;2022-12-17T16:14:19;31.80;;;24.67;;
8622;SDS011;4349;47.552;8.904;2022-12-17T16:16:47;29.23;;;23.40;;
8622;SDS011;4349;47.552;8.904;2022-12-17T16:19:16;29.90;;;23.47;;
8622;SDS011;4349;47.552;8.904;2022-12-17T16:21:43;27.63;;;21.33;;
8622;SDS011;4349;47.552;8.904;2022-12-17T16:24:12;24.53;;;21.00;;
8622;SDS011;4349;47.552;8.904;2022-12-17T16:26:40;26.53;;;20.40;;
8622;SDS011;4349;47.552;8.904;2022-12-17T16:29:07;23.10;;;19.03;;